Barrow, Illinois
Current Conditions -  °F | °C
As of 9:55 PM on Wednesday 22 Oct 2014 (Local Time) from KIJX Reporting Station
Clear Clear  
Wind Chill: 40°   Ceiling: Unl
Heat Index: 43°   Visibility: 10mi
Dew Point: 38°   Wind: 5mph
Humidity: 81%   Direction: 110°ESE
Pressure: 30.25"   Gusts: NA
Location:  39.491°N, 90.2996°W
Report Text: KIJX 230255Z AUTO 11004KT 10SM CLR 06/03 A3025 RMK AO2 T00610031
Loading
Personal Weather Stations






























Interactive Weather Map
Tropical Storm Tracking
New forecast layout! Learn more

10-Day Weather Forecast

Advertisements
Track Severe Weather on mobile